createdAt,value
2018-03-01T00:01:00.523Z,102487.05
2018-03-01T00:03:28.883Z,102487.55
2018-03-01T00:05:57.945Z,102470.77
2018-03-01T00:08:26.291Z,102475.57
2018-03-01T00:10:54.610Z,102476.03
2018-03-01T00:13:22.938Z,102482.23
2018-03-01T00:15:51.253Z,102482.98
2018-03-01T00:18:19.790Z,102480.20
2018-03-01T00:20:48.130Z,102478.58
2018-03-01T00:23:16.445Z,102475.44
2018-03-01T00:25:45.564Z,102466.41
2018-03-01T00:28:14.019Z,102466.88
2018-03-01T00:30:44.181Z,102465.93
2018-03-01T00:33:12.537Z,102448.32
2018-03-01T00:35:40.852Z,102447.88
2018-03-01T00:38:09.202Z,102443.67
2018-03-01T00:40:37.872Z,102442.89
2018-03-01T00:43:06.193Z,102443.69
2018-03-01T00:45:34.507Z,102451.13
2018-03-01T00:48:03.629Z,102446.41
2018-03-01T00:50:31.947Z,102430.44
2018-03-01T00:53:00.274Z,102441.57
2018-03-01T00:55:28.639Z,102446.82
2018-03-01T00:57:57.742Z,102437.09
2018-03-01T01:00:26.833Z,102435.97
2018-03-01T01:02:56.033Z,102431.41
2018-03-01T01:05:24.364Z,102428.36
2018-03-01T01:07:52.692Z,102425.76
2018-03-01T01:10:21.790Z,102413.31
2018-03-01T01:12:50.870Z,102409.41
2018-03-01T01:15:19.970Z,102406.42
2018-03-01T01:17:49.093Z,102406.70
2018-03-01T01:20:17.413Z,102403.29
2018-03-01T01:22:45.716Z,102406.22
2018-03-01T01:25:14.192Z,102398.81
2018-03-01T01:27:42.495Z,102399.63
2018-03-01T01:30:11.562Z,102393.42
2018-03-01T01:32:39.913Z,102390.89
2018-03-01T01:35:08.239Z,102383.93
2018-03-01T01:37:37.344Z,102382.16
2018-03-01T01:40:06.450Z,102374.16
2018-03-01T01:42:34.786Z,102373.53
2018-03-01T01:45:03.124Z,102372.63
2018-03-01T01:47:31.901Z,102370.44
2018-03-01T01:50:00.336Z,102361.94
2018-03-01T01:52:28.676Z,102350.50
2018-03-01T01:54:57.025Z,102358.77
2018-03-01T01:57:26.199Z,102353.58
2018-03-01T01:59:54.528Z,102348.77
2018-03-01T02:02:22.879Z,102344.77
2018-03-01T02:04:51.193Z,102340.81
2018-03-01T02:07:19.503Z,102333.95
2018-03-01T02:09:48.109Z,102330.77
2018-03-01T02:12:16.476Z,102320.25
2018-03-01T02:14:44.802Z,102324.56
2018-03-01T02:17:13.149Z,102323.41
2018-03-01T02:19:41.466Z,102323.88
2018-03-01T02:22:09.765Z,102314.95
2018-03-01T02:24:38.098Z,102316.41
2018-03-01T02:27:07.159Z,102315.23
2018-03-01T02:29:35.484Z,102302.96
2018-03-01T02:32:04.031Z,102308.02
2018-03-01T02:34:33.143Z,102301.70
2018-03-01T02:37:02.237Z,102307.78
2018-03-01T02:39:30.571Z,102298.98
2018-03-01T02:41:58.933Z,102295.41
2018-03-01T02:44:27.251Z,102287.41
2018-03-01T02:46:55.624Z,102292.34
2018-03-01T02:49:23.945Z,102286.61
2018-03-01T02:51:52.289Z,102288.72
2018-03-01T02:54:20.879Z,102283.06
2018-03-01T02:56:49.138Z,102282.29
2018-03-01T02:59:17.488Z,102275.09
2018-03-01T03:01:45.864Z,102285.22
2018-03-01T03:04:14.158Z,102279.80
2018-03-01T03:06:43.260Z,102282.08
2018-03-01T03:09:11.615Z,102281.48
2018-03-01T03:11:39.970Z,102281.81
2018-03-01T03:14:08.307Z,102284.58
2018-03-01T03:16:36.761Z,102267.50
2018-03-01T03:19:05.112Z,102274.95
2018-03-01T03:21:33.451Z,102270.09
2018-03-01T03:24:01.824Z,102279.41
2018-03-01T03:26:30.173Z,102275.86
2018-03-01T03:28:58.488Z,102279.00
2018-03-01T03:31:27.033Z,102278.89
2018-03-01T03:33:55.389Z,102274.05
2018-03-01T03:36:23.713Z,102285.89
2018-03-01T03:38:52.345Z,102277.96
2018-03-01T03:41:20.682Z,102275.38
2018-03-01T03:43:49.001Z,102276.20
2018-03-01T03:46:17.343Z,102270.77
2018-03-01T03:48:45.684Z,102266.27
2018-03-01T03:51:13.985Z,102264.93
2018-03-01T03:53:42.344Z,102252.78
2018-03-01T03:56:10.687Z,102254.48
2018-03-01T03:58:39.766Z,102250.09
2018-03-01T04:01:08.289Z,102251.89
2018-03-01T04:03:36.627Z,102247.95
2018-03-01T04:06:04.907Z,102245.65
2018-03-01T04:08:33.260Z,102233.84
2018-03-01T04:11:01.557Z,102233.78
2018-03-01T04:13:29.886Z,102229.66
2018-03-01T04:15:58.237Z,102224.83
2018-03-01T04:18:26.556Z,102225.07
2018-03-01T04:20:54.920Z,102218.88
2018-03-01T04:23:23.445Z,102236.86
2018-03-01T04:25:51.776Z,102233.80
2018-03-01T04:28:20.078Z,102227.02
2018-03-01T04:30:48.405Z,102225.68
2018-03-01T04:33:18.520Z,102215.80
2018-03-01T04:35:47.621Z,102215.36
2018-03-01T04:38:16.713Z,102217.72
2018-03-01T04:40:45.820Z,102218.50
2018-03-01T04:43:14.904Z,102211.89
2018-03-01T04:45:44.511Z,102201.54
2018-03-01T04:48:12.851Z,102190.17
2018-03-01T04:50:41.948Z,102186.77
2018-03-01T04:53:10.290Z,102190.91
2018-03-01T04:55:38.614Z,102175.73
2018-03-01T04:58:06.925Z,102184.31
2018-03-01T05:00:35.263Z,102179.79
2018-03-01T05:03:03.562Z,102177.16
2018-03-01T05:05:31.968Z,102177.84
2018-03-01T05:08:01.549Z,102163.04
2018-03-01T05:10:29.917Z,102153.73
2018-03-01T05:12:58.266Z,102153.94
2018-03-01T05:15:26.627Z,102146.33
2018-03-01T05:17:55.033Z,102148.37
2018-03-01T05:20:23.408Z,102149.27
2018-03-01T05:22:51.725Z,102146.70
2018-03-01T05:25:20.022Z,102145.77
2018-03-01T05:27:49.114Z,102137.53
2018-03-01T05:30:18.438Z,102130.03
2018-03-01T05:32:46.780Z,102135.37
2018-03-01T05:35:15.249Z,102126.75
2018-03-01T05:37:43.602Z,102128.34
2018-03-01T05:40:11.961Z,102129.22
2018-03-01T05:42:40.288Z,102123.58
2018-03-01T05:45:08.617Z,102121.38
2018-03-01T05:47:36.958Z,102128.79
2018-03-01T05:50:06.027Z,102122.13
2018-03-01T05:52:34.452Z,102127.34
2018-03-01T05:55:03.611Z,102130.27
2018-03-01T05:57:31.904Z,102122.89
2018-03-01T06:00:00.245Z,102125.37
2018-03-01T06:02:28.562Z,102128.97
2018-03-01T06:04:56.869Z,102132.97
2018-03-01T06:07:25.948Z,102120.66
2018-03-01T06:09:55.042Z,102126.85
2018-03-01T06:12:24.122Z,102121.87
2018-03-01T06:14:52.719Z,102120.64
2018-03-01T06:17:21.040Z,102122.63
2018-03-01T06:19:49.349Z,102114.53
2018-03-01T06:22:18.179Z,102119.23
2018-03-01T06:24:47.258Z,102108.00
2018-03-01T06:27:15.597Z,102107.52
2018-03-01T06:29:43.914Z,102106.42
2018-03-01T06:32:12.239Z,102110.66
2018-03-01T06:34:40.542Z,102110.70
2018-03-01T06:37:08.934Z,102110.33
2018-03-01T06:39:37.245Z,102108.20
2018-03-01T06:42:06.310Z,102102.75
2018-03-01T06:44:34.662Z,102102.22
2018-03-01T06:47:02.986Z,102103.83
2018-03-01T06:49:32.061Z,102102.01
2018-03-01T06:52:00.428Z,102102.56
2018-03-01T06:54:28.738Z,102095.17
2018-03-01T06:56:57.047Z,102092.92
2018-03-01T06:59:25.480Z,102087.75
2018-03-01T07:01:53.785Z,102079.41
2018-03-01T07:04:22.852Z,102072.47
2018-03-01T07:06:51.201Z,102064.41
2018-03-01T07:09:19.533Z,102060.27
2018-03-01T07:11:47.892Z,102059.88
2018-03-01T07:14:16.252Z,102059.21
2018-03-01T07:16:44.586Z,102048.23
2018-03-01T07:19:12.937Z,102039.47
2018-03-01T07:21:41.729Z,102041.59
2018-03-01T07:24:10.061Z,102033.45
2018-03-01T07:26:38.409Z,102029.05
2018-03-01T07:29:06.758Z,102032.05
2018-03-01T07:31:35.074Z,102039.16
2018-03-01T07:34:03.396Z,102029.23
2018-03-01T07:36:31.733Z,102035.58
2018-03-01T07:39:00.248Z,102032.84
2018-03-01T07:41:28.528Z,102028.55
2018-03-01T07:43:56.985Z,102024.72
2018-03-01T07:46:25.306Z,102028.50
2018-03-01T07:48:53.627Z,102015.70
2018-03-01T07:51:22.001Z,102012.23
2018-03-01T07:53:50.339Z,102016.22
2018-03-01T07:56:18.700Z,102003.76
2018-03-01T07:58:47.863Z,102008.73
2018-03-01T08:01:16.157Z,102002.49
2018-03-01T08:03:44.466Z,101995.17
2018-03-01T08:06:12.877Z,102000.66
2018-03-01T08:08:41.991Z,102003.48
2018-03-01T08:11:10.332Z,101996.03
2018-03-01T08:13:38.732Z,102000.67
2018-03-01T08:16:07.813Z,102012.74
2018-03-01T08:18:36.155Z,101998.23
2018-03-01T08:21:04.532Z,102007.77
2018-03-01T08:23:32.835Z,102004.46
2018-03-01T08:26:01.243Z,101997.80
2018-03-01T08:28:30.918Z,101990.44
2018-03-01T08:30:59.234Z,102006.23
2018-03-01T08:33:28.294Z,102009.30
2018-03-01T08:35:57.210Z,102003.36
2018-03-01T08:38:25.514Z,102007.32
2018-03-01T08:40:53.823Z,102003.41
2018-03-01T08:43:22.189Z,102002.05
2018-03-01T08:45:50.523Z,101993.69
2018-03-01T08:48:19.622Z,101989.58
2018-03-01T08:50:48.935Z,101990.67
2018-03-01T08:53:17.997Z,101979.04
2018-03-01T08:55:46.305Z,101969.69
2018-03-01T08:58:14.678Z,101956.14
2018-03-01T09:00:43.784Z,101947.63
2018-03-01T09:03:12.088Z,101943.47
2018-03-01T09:05:40.442Z,101938.67
2018-03-01T09:08:08.756Z,101948.50
2018-03-01T09:10:37.080Z,101947.91
2018-03-01T09:13:06.276Z,101940.12
2018-03-01T09:15:35.377Z,101936.52
2018-03-01T09:18:04.475Z,101936.35
2018-03-01T09:20:33.632Z,101937.65
2018-03-01T09:23:01.948Z,101935.65
2018-03-01T09:25:31.421Z,101941.34
2018-03-01T09:27:59.782Z,101937.75
2018-03-01T09:30:28.110Z,101942.23
2018-03-01T09:32:56.439Z,101935.36
2018-03-01T09:35:25.116Z,101927.58
2018-03-01T09:37:53.440Z,101924.83
2018-03-01T09:40:21.751Z,101919.28
2018-03-01T09:42:50.095Z,101927.40
2018-03-01T09:45:19.402Z,101914.11
2018-03-01T09:47:47.741Z,101909.36
2018-03-01T09:50:16.091Z,101917.95
2018-03-01T09:52:44.866Z,101915.87
2018-03-01T09:55:13.201Z,101926.20
2018-03-01T09:57:41.764Z,101925.99
2018-03-01T10:00:10.094Z,101917.16
2018-03-01T10:02:39.383Z,101916.03
2018-03-01T10:05:07.848Z,101922.91
2018-03-01T10:07:36.179Z,101901.55
2018-03-01T10:10:04.538Z,101914.61
2018-03-01T10:12:33.672Z,101903.77
2018-03-01T10:15:01.977Z,101896.66
2018-03-01T10:17:30.714Z,101896.52
2018-03-01T10:19:59.230Z,101892.81
2018-03-01T10:22:27.924Z,101892.11
2018-03-01T10:24:56.234Z,101892.13
2018-03-01T10:27:26.469Z,101880.59
2018-03-01T10:29:54.788Z,101878.19
2018-03-01T10:32:23.125Z,101872.75
2018-03-01T10:34:51.528Z,101868.94
2018-03-01T10:37:19.878Z,101874.98
2018-03-01T10:39:48.976Z,101878.41
2018-03-01T10:42:18.954Z,101883.54
2018-03-01T10:44:47.271Z,101875.62
2018-03-01T10:47:15.574Z,101870.47
2018-03-01T10:49:43.898Z,101854.41
2018-03-01T10:52:12.226Z,101833.42
2018-03-01T10:54:40.559Z,101822.22
2018-03-01T10:57:08.994Z,101804.66
2018-03-01T10:59:37.342Z,101806.17
2018-03-01T11:02:05.678Z,101800.84
2018-03-01T11:04:34.186Z,101798.73
2018-03-01T11:07:02.522Z,101794.81
2018-03-01T11:09:30.838Z,101790.02
2018-03-01T11:11:59.567Z,101807.89
2018-03-01T11:14:27.883Z,101807.70
2018-03-01T11:16:56.209Z,101800.31
2018-03-01T11:19:25.330Z,101788.51
2018-03-01T11:21:53.658Z,101778.16
2018-03-01T11:24:21.976Z,101787.66
2018-03-01T11:26:51.372Z,101776.80
2018-03-01T11:29:20.472Z,101763.70
2018-03-01T11:31:49.573Z,101751.84
2018-03-01T11:34:17.921Z,101757.64
2018-03-01T11:36:46.255Z,101747.72
2018-03-01T11:39:14.588Z,101751.36
2018-03-01T11:41:43.691Z,101746.39
2018-03-01T11:44:12.743Z,101742.05
2018-03-01T11:46:41.050Z,101743.22
2018-03-01T11:49:09.661Z,101738.27
2018-03-01T11:51:37.963Z,101730.71
2018-03-01T11:54:06.272Z,101720.94
2018-03-01T11:56:34.652Z,101718.61
2018-03-01T11:59:02.980Z,101726.48
2018-03-01T12:01:31.321Z,101714.72
2018-03-01T12:03:59.652Z,101712.95
2018-03-01T12:06:27.977Z,101701.94
2018-03-01T12:08:56.294Z,101687.04
2018-03-01T12:11:24.821Z,101692.58
2018-03-01T12:13:53.144Z,101684.59
2018-03-01T12:16:22.239Z,101670.34
2018-03-01T12:18:51.367Z,101671.70
2018-03-01T12:21:19.693Z,101677.20
2018-03-01T12:23:48.009Z,101683.24
2018-03-01T12:26:16.349Z,101680.83
2018-03-01T12:28:44.658Z,101670.49
2018-03-01T12:31:12.987Z,101642.35
2018-03-01T12:33:41.442Z,101647.23
2018-03-01T12:36:09.780Z,101645.42
2018-03-01T12:38:38.200Z,101638.18
2018-03-01T12:41:06.565Z,101632.41
2018-03-01T12:43:34.896Z,101609.16
2018-03-01T12:46:03.293Z,101626.22
2018-03-01T12:48:31.636Z,101614.73
2018-03-01T12:50:59.973Z,101613.14
2018-03-01T12:53:28.318Z,101608.73
2018-03-01T12:55:56.995Z,101605.31
2018-03-01T12:58:25.296Z,101593.41
2018-03-01T13:00:53.598Z,101592.61
2018-03-01T13:03:21.913Z,101595.05
2018-03-01T13:05:50.229Z,101595.30
2018-03-01T13:08:19.377Z,101582.05
2018-03-01T13:10:47.958Z,101574.12
2018-03-01T13:13:16.269Z,101560.42
2018-03-01T13:15:44.624Z,101560.03
2018-03-01T13:18:13.548Z,101556.75
2018-03-01T13:20:41.962Z,101546.54
2018-03-01T13:23:11.045Z,101545.53
2018-03-01T13:25:40.199Z,101542.77
2018-03-01T13:28:08.555Z,101550.48
2018-03-01T13:30:48.557Z,101544.66
2018-03-01T13:36:28.890Z,101539.88
2018-03-01T13:38:57.222Z,101529.51
2018-03-01T13:41:26.338Z,101540.56
2018-03-01T13:43:54.677Z,101548.87
2018-03-01T13:46:33.682Z,101555.58
2018-03-01T13:49:02.012Z,101548.88
2018-03-01T13:51:31.160Z,101544.31
2018-03-01T13:53:59.559Z,101544.30
2018-03-01T13:56:27.970Z,101535.09
2018-03-01T13:58:56.305Z,101541.75
2018-03-01T14:01:24.614Z,101539.67
2018-03-01T14:03:53.743Z,101531.23
2018-03-01T14:06:22.958Z,101521.00
2018-03-01T14:08:51.275Z,101525.64
2018-03-01T14:11:19.638Z,101530.41
2018-03-01T14:13:47.960Z,101535.84
2018-03-01T14:16:17.049Z,101530.59
2018-03-01T14:21:56.034Z,101527.09
2018-03-01T14:24:27.178Z,101520.44
2018-03-01T14:29:58.322Z,101519.96
2018-03-01T14:32:26.649Z,101517.70
2018-03-01T14:34:55.115Z,101509.66
2018-03-01T14:37:23.538Z,101502.34
2018-03-01T14:39:51.920Z,101502.31
2018-03-01T14:42:21.028Z,101501.16
2018-03-01T14:44:49.377Z,101503.77
2018-03-01T14:47:17.731Z,101507.20
2018-03-01T14:49:46.043Z,101496.82
2018-03-01T14:52:14.403Z,101493.78
2018-03-01T14:54:42.693Z,101488.38
2018-03-01T14:57:11.031Z,101475.80
2018-03-01T14:59:39.671Z,101479.03
2018-03-01T15:02:08.782Z,101471.09
2018-03-01T15:04:37.923Z,101497.77
2018-03-01T15:07:06.263Z,101474.76
2018-03-01T15:09:34.633Z,101470.58
2018-03-01T15:12:02.991Z,101471.39
2018-03-01T15:14:31.353Z,101463.61
2018-03-01T15:16:59.668Z,101453.62
2018-03-01T15:19:28.065Z,101456.73
2018-03-01T15:21:57.805Z,101443.36
2018-03-01T15:24:26.132Z,101448.05
2018-03-01T15:26:55.219Z,101446.11
2018-03-01T15:29:23.558Z,101434.61
2018-03-01T15:31:51.890Z,101435.13
2018-03-01T15:34:20.205Z,101432.00
2018-03-01T15:36:48.534Z,101431.25
2018-03-01T15:39:17.911Z,101431.72
2018-03-01T15:41:46.245Z,101418.47
2018-03-01T15:44:14.870Z,101423.76
2018-03-01T15:46:43.174Z,101418.44
2018-03-01T15:49:11.507Z,101424.55
2018-03-01T15:51:39.855Z,101417.58
2018-03-01T15:54:08.939Z,101429.56
2018-03-01T15:56:39.116Z,101422.87
2018-03-01T15:59:08.009Z,101424.13
2018-03-01T16:01:36.345Z,101441.31
2018-03-01T16:04:05.436Z,101419.48
2018-03-01T16:06:33.853Z,101412.44
2018-03-01T16:09:02.146Z,101413.53
2018-03-01T16:11:31.246Z,101413.28
2018-03-01T16:13:59.580Z,101410.45
2018-03-01T16:16:27.904Z,101419.66
2018-03-01T16:18:56.228Z,101419.69
2018-03-01T16:21:24.589Z,101426.20
2018-03-01T16:23:53.685Z,101422.36
2018-03-01T16:26:22.749Z,101429.33
2018-03-01T16:28:51.152Z,101430.62
2018-03-01T16:31:20.261Z,101434.48
2018-03-01T16:33:48.784Z,101437.02
2018-03-01T16:36:17.141Z,101445.16
2018-03-01T16:38:46.316Z,101443.94
2018-03-01T16:41:15.099Z,101437.77
2018-03-01T16:43:43.514Z,101431.98
2018-03-01T16:46:11.854Z,101440.34
2018-03-01T16:48:40.189Z,101433.25
2018-03-01T16:51:08.759Z,101428.81
2018-03-01T16:53:37.089Z,101428.55
2018-03-01T16:56:05.419Z,101431.76
2018-03-01T16:58:33.786Z,101427.94
2018-03-01T17:01:02.110Z,101439.76
2018-03-01T17:03:30.447Z,101430.55
2018-03-01T17:05:58.777Z,101426.84
2018-03-01T17:08:27.093Z,101420.45
2018-03-01T17:10:55.407Z,101412.47
2018-03-01T17:13:23.921Z,101421.09
2018-03-01T17:15:52.217Z,101423.37
2018-03-01T17:18:21.293Z,101427.52
2018-03-01T17:20:49.643Z,101430.05
2018-03-01T17:23:17.988Z,101419.66
2018-03-01T17:25:46.314Z,101422.55
2018-03-01T17:28:14.670Z,101430.20
2018-03-01T17:30:43.021Z,101415.98
2018-03-01T17:33:11.330Z,101419.60
2018-03-01T17:35:39.813Z,101408.86
2018-03-01T17:38:08.125Z,101407.40
2018-03-01T17:40:36.566Z,101408.12
2018-03-01T17:43:04.916Z,101402.55
2018-03-01T17:45:33.997Z,101401.55
2018-03-01T17:48:03.097Z,101403.52
2018-03-01T17:50:32.224Z,101415.41
2018-03-01T17:53:00.548Z,101415.55
2018-03-01T17:55:28.888Z,101410.81
2018-03-01T17:57:57.335Z,101417.44
2018-03-01T18:00:25.727Z,101415.67
2018-03-01T18:02:54.018Z,101401.73
2018-03-01T18:05:22.344Z,101415.91
2018-03-01T18:07:50.676Z,101404.75
2018-03-01T18:10:18.982Z,101392.53
2018-03-01T18:12:47.317Z,101396.16
2018-03-01T18:15:16.416Z,101377.59
2018-03-01T18:17:44.782Z,101381.91
2018-03-01T18:20:13.866Z,101383.71
2018-03-01T18:22:42.965Z,101384.45
2018-03-01T18:25:12.055Z,101388.01
2018-03-01T18:27:40.409Z,101372.59
2018-03-01T18:30:08.733Z,101377.59
2018-03-01T18:32:37.819Z,101371.28
2018-03-01T18:35:06.921Z,101375.53
2018-03-01T18:37:35.991Z,101383.81
2018-03-01T18:40:04.290Z,101380.77
2018-03-01T18:42:33.472Z,101383.05
2018-03-01T18:45:01.776Z,101384.19
2018-03-01T18:47:30.862Z,101392.80
2018-03-01T18:50:00.014Z,101383.84
2018-03-01T18:52:28.340Z,101390.95
2018-03-01T18:54:57.451Z,101387.54
2018-03-01T18:57:25.797Z,101383.09
2018-03-01T18:59:54.178Z,101389.20
2018-03-01T19:02:23.222Z,101387.23
2018-03-01T19:04:52.081Z,101393.83
2018-03-01T19:07:21.180Z,101395.78
2018-03-01T19:09:50.267Z,101388.63
2018-03-01T19:12:19.401Z,101388.22
2018-03-01T19:14:47.742Z,101379.77
2018-03-01T19:17:16.841Z,101383.81
2018-03-01T19:19:46.897Z,101383.55
2018-03-01T19:22:15.260Z,101379.52
2018-03-01T19:24:43.583Z,101385.20
2018-03-01T19:27:12.185Z,101381.97
2018-03-01T19:29:40.514Z,101384.62
2018-03-01T19:32:08.837Z,101383.24
2018-03-01T19:34:37.203Z,101383.70
2018-03-01T19:37:05.532Z,101379.72
2018-03-01T19:39:37.384Z,101380.73
2018-03-01T19:42:06.536Z,101375.65
2018-03-01T19:44:34.861Z,101372.63
2018-03-01T19:47:07.867Z,101364.84
2018-03-01T19:49:36.442Z,101367.27
2018-03-01T19:52:04.769Z,101371.55
2018-03-01T19:54:33.128Z,101367.93
2018-03-01T19:57:01.513Z,101361.02
2018-03-01T19:59:29.901Z,101371.35
2018-03-01T20:01:58.268Z,101372.99
2018-03-01T20:04:26.603Z,101364.46
2018-03-01T20:06:55.692Z,101360.98
2018-03-01T20:09:24.783Z,101363.89
2018-03-01T20:11:54.230Z,101363.88
2018-03-01T20:14:22.564Z,101362.47
2018-03-01T20:16:51.643Z,101360.37
2018-03-01T20:19:20.036Z,101366.19
2018-03-01T20:21:48.330Z,101359.20
2018-03-01T20:24:16.639Z,101361.79
2018-03-01T20:26:44.995Z,101360.86
2018-03-01T20:29:13.341Z,101352.69
2018-03-01T20:31:41.653Z,101353.89
2018-03-01T20:34:10.414Z,101344.86
2018-03-01T20:36:38.750Z,101343.27
2018-03-01T20:39:07.118Z,101339.04
2018-03-01T20:41:35.494Z,101343.86
2018-03-01T20:44:03.811Z,101334.99
2018-03-01T20:46:32.106Z,101336.53
2018-03-01T20:49:00.480Z,101336.42
2018-03-01T20:51:28.869Z,101324.62
2018-03-01T20:53:57.988Z,101326.85
2018-03-01T20:56:26.433Z,101329.84
2018-03-01T20:58:54.807Z,101323.13
2018-03-01T21:01:23.109Z,101317.95
2018-03-01T21:03:52.203Z,101315.44
2018-03-01T21:06:21.281Z,101310.98
2018-03-01T21:08:49.594Z,101317.01
2018-03-01T21:11:17.923Z,101312.75
2018-03-01T21:13:46.248Z,101315.53
2018-03-01T21:16:14.593Z,101311.52
2018-03-01T21:18:43.581Z,101309.05
2018-03-01T21:21:11.885Z,101305.28
2018-03-01T21:23:40.195Z,101296.62
2018-03-01T21:26:08.509Z,101303.31
2018-03-01T21:28:36.813Z,101300.94
2018-03-01T21:31:05.930Z,101292.02
2018-03-01T21:33:35.061Z,101294.73
2018-03-01T21:36:03.363Z,101288.47
2018-03-01T21:38:31.665Z,101287.13
2018-03-01T21:41:00.830Z,101281.92
2018-03-01T21:43:29.181Z,101269.25
2018-03-01T21:45:57.489Z,101266.67
2018-03-01T21:48:25.837Z,101258.42
2018-03-01T21:50:54.157Z,101256.42
2018-03-01T21:53:22.483Z,101256.30
2018-03-01T21:55:50.963Z,101252.41
2018-03-01T21:58:19.296Z,101253.49
2018-03-01T22:00:47.637Z,101250.55
2018-03-01T22:03:16.267Z,101248.88
2018-03-01T22:05:44.577Z,101251.84
2018-03-01T22:08:12.921Z,101251.36
2018-03-01T22:10:41.281Z,101245.87
2018-03-01T22:13:09.613Z,101246.50
2018-03-01T22:15:37.937Z,101248.33
2018-03-01T22:18:07.057Z,101250.85
2018-03-01T22:20:35.410Z,101236.84
2018-03-01T22:23:03.736Z,101242.45
2018-03-01T22:25:32.159Z,101244.22
2018-03-01T22:28:00.470Z,101242.22
2018-03-01T22:30:28.786Z,101234.75
2018-03-01T22:32:57.139Z,101219.73
2018-03-01T22:35:26.206Z,101224.18
2018-03-01T22:37:54.542Z,101223.77
2018-03-01T22:40:22.889Z,101222.67
2018-03-01T22:42:51.223Z,101219.14
2018-03-01T22:45:19.536Z,101220.98
2018-03-01T22:47:48.210Z,101208.80
2018-03-01T22:50:16.543Z,101214.86
2018-03-01T22:52:45.658Z,101210.56
2018-03-01T22:55:14.033Z,101216.09
2018-03-01T22:57:42.349Z,101225.72
2018-03-01T23:00:11.459Z,101205.72
2018-03-01T23:02:40.667Z,101206.73
2018-03-01T23:05:08.989Z,101205.42
2018-03-01T23:07:37.329Z,101207.84
2018-03-01T23:10:06.586Z,101201.56
2018-03-01T23:12:34.911Z,101194.20
2018-03-01T23:15:04.062Z,101202.98
2018-03-01T23:17:32.425Z,101200.80
2018-03-01T23:20:00.753Z,101192.13
2018-03-01T23:22:29.855Z,101196.70
2018-03-01T23:24:59.006Z,101188.66
2018-03-01T23:27:27.362Z,101192.66
2018-03-01T23:29:57.160Z,101184.88
2018-03-01T23:32:26.897Z,101182.88
2018-03-01T23:34:55.261Z,101184.75
2018-03-01T23:37:23.561Z,101178.80
2018-03-01T23:39:51.888Z,101176.83
2018-03-01T23:42:20.960Z,101179.72
2018-03-01T23:44:49.325Z,101179.64
2018-03-01T23:47:17.672Z,101175.25
2018-03-01T23:49:45.975Z,101177.19
2018-03-01T23:52:14.367Z,101177.66
2018-03-01T23:54:43.198Z,101177.44
2018-03-01T23:57:12.282Z,101181.14
2018-03-01T23:59:41.545Z,101168.48
